TLPLTBPB

Guest
Details From TLPL - St. Lucia/Hewanorra Intl
To TBPB - Barbados/Grantley Adams Intl
Flight Number -
Tags generated
Created
Modified
Stats Distance 94 nm / 174 km
Max Altitude 11,100 ft / 3,383 m
Waypoints 3
Social Downloads 0
Likes 0
Share VATSIM

Download

Looking for another format? Having issues loading an existing format? Contact us
Advertisement - Login to hide

Notes

Basic altitude profile: - Ascent Rate: 2500ft/min - Ascent Speed: 250kts - Cruise Altitude: 35000ft - Cruise Speed: 420kts - Descent Rate: 1500ft/min - Descent Speed: 250kts Options: - Use NATs: yes - Use PACOTS: yes - Use low airways: yes - Use high airways: yes

Route

TLPL ANKAR TBPB

ID Type Via Altitude Latitude Longitude Leg Dist Tot Dist Heading (true) Name
O TLPL APT - 0 ft / 0 m 13.73319˚ -60.95260˚ - 0 nm - St. Lucia/Hewanorra Intl
ANKAR FIX - 11,100 ft / 3,383 m 13.43639˚ -60.29889˚ 42 nm 42 nm 115° / 115° -
O TBPB APT - 0 ft / 0 m 13.07461˚ -59.49221˚ 51 nm 94 nm 115° / 115° Barbados/Grantley Adams Intl

Altitude Profile

Advertisement - Login to hide

TLPL

Details ICAO TLPL (UVF)
Name St. Lucia/Hewanorra Intl
Region Saint Lucia
Timezone America/St_Lucia (UTC-4.0)
Stats Elevation 14 ft / 4 m (AMSL)
Location 13.733194° -60.952599°
Runways 1
Magnetic Variation 15.092° W

METAR

TLPL 182200Z 08016KT 9999 FEW025 28/23 Q1014 NOSIG

Decode

TAF

Not found

Departure Runways

ID Width Length Bearing (true) Bearing (mag) Surface Threshold Offset Overrun Length
10 148 ft / 45 m 8,979 ft / 2,737 m 90.01° 105.10° Asphalt 0 ft / 0 m 200 ft / 61 m
28 148 ft / 45 m 8,979 ft / 2,737 m 270.01° 285.10° Asphalt 459 ft / 140 m 0 ft / 0 m

TBPB

Details ICAO TBPB (BGI)
Name Barbados/Grantley Adams Intl
Region Barbados
Timezone America/Barbados (UTC-4.0)
Stats Elevation 168 ft / 51 m (AMSL)
Location 13.074614° -59.492206°
Runways 1
Magnetic Variation 15.613° W

METAR

TBPB 182300Z 08015KT 9999 FEW016 27/23 Q1014 NOSIG

Decode

TAF

Not found

Destination Runways

ID Width Length Bearing (true) Bearing (mag) Surface Threshold Offset Overrun Length
09 148 ft / 45 m 11,924 ft / 3,635 m 75.84° 91.45° Asphalt 0 ft / 0 m 174 ft / 53 m
27 148 ft / 45 m 11,924 ft / 3,635 m 255.85° 271.46° Asphalt 0 ft / 0 m 0 ft / 0 m

Approach Navaids

Runway Type Ident Frequency Range Bearing (true) Bearing (mag) Slope Elevation
09 Localiser IBGI 110.10 MHz 18 nm / 33 km 75.97° 91.59° - 168 ft / 51 m (AMSL)
09 Glidescope IBGI 110.10 MHz 10 nm / 19 km 75.85° 91.46° 3.00° 168 ft / 51 m (AMSL)

Popular Alternatives